Time;durP1;ratioP1;P1;durP2;ratioP2;P2;SDS_P1;SDS_P2;PMS_P1;PMS_P2;Temp;Humidity;BMP_temperature;BMP_pressure;BME280_temperature;BME280_humidity;BME280_pressure;Samples;Min_cycle;Max_cycle;Signal;HPM_P1;HPM_P2
2022/01/21 00:00:55;;;;;;;2.70;1.42;;;;;;;;;;5015108;28;20026;-60
2022/01/21 00:03:22;;;;;;;3.10;1.45;;;;;;;;;;5015274;28;20477;-60
2022/01/21 00:05:48;;;;;;;2.65;1.35;;;;;;;;;;5015184;28;20113;-60
2022/01/21 00:08:14;;;;;;;4.68;1.42;;;;;;;;;;5015012;28;20536;-60
2022/01/21 00:10:40;;;;;;;3.08;1.50;;;;;;;;;;5023670;28;20022;-60
2022/01/21 00:13:15;;;;;;;2.75;1.35;;;;;;;;;;5030209;28;20127;-60
2022/01/21 00:15:41;;;;;;;4.57;1.58;;;;;;;;;;5006924;28;20046;-59
2022/01/21 00:18:09;;;;;;;3.42;1.40;;;;;;;;;;5014771;28;20026;-60
2022/01/21 00:31:38;;;;;;;1.95;1.00;;;;;;;;;;5014347;28;20045;-60
2022/01/21 00:34:04;;;;;;;2.10;1.00;;;;;;;;;;4996794;28;20472;-60
2022/01/21 00:36:32;;;;;;;3.03;1.30;;;;;;;;;;5014560;28;20453;-62
2022/01/21 00:38:58;;;;;;;2.47;1.13;;;;;;;;;;5014573;28;20393;-60
2022/01/21 00:41:28;;;;;;;2.92;1.10;;;;;;;;;;5014123;28;20024;-60
2022/01/21 00:43:54;;;;;;;3.08;1.00;;;;;;;;;;5014473;28;20041;-60
2022/01/21 00:46:21;;;;;;;5.00;0.85;;;;;;;;;;5014488;28;20104;-60
2022/01/21 00:48:47;;;;;;;4.35;1.23;;;;;;;;;;5011116;28;20038;-59
2022/01/21 00:51:13;;;;;;;2.35;1.00;;;;;;;;;;4991159;28;20072;-62
2022/01/21 00:53:39;;;;;;;2.67;0.93;;;;;;;;;;4996429;28;20084;-61
2022/01/21 00:56:05;;;;;;;1.80;1.00;;;;;;;;;;4996516;28;20113;-62
2022/01/21 00:58:31;;;;;;;2.63;0.88;;;;;;;;;;5014070;28;20049;-61
2022/01/21 01:00:57;;;;;;;2.88;1.08;;;;;;;;;;5013893;28;20057;-60
2022/01/21 01:03:23;;;;;;;1.23;0.60;;;;;;;;;;5012915;28;20026;-61
2022/01/21 01:05:51;;;;;;;1.27;0.70;;;;;;;;;;4988319;28;20025;-61
2022/01/21 01:08:17;;;;;;;0.98;0.60;;;;;;;;;;5014190;28;20040;-60
2022/01/21 01:21:33;;;;;;;1.75;0.80;;;;;;;;;;4996408;28;20222;-60
2022/01/21 01:29:20;;;;;;;1.45;0.70;;;;;;;;;;4994020;28;20483;-61
2022/01/21 01:31:46;;;;;;;1.00;0.60;;;;;;;;;;4976526;28;20121;-62
2022/01/21 01:34:12;;;;;;;2.75;0.90;;;;;;;;;;4998932;28;20103;-60
2022/01/21 01:36:41;;;;;;;0.93;0.50;;;;;;;;;;4995783;28;20026;-61
2022/01/21 01:50:25;;;;;;;1.65;0.68;;;;;;;;;;5012700;28;20077;-61
2022/01/21 01:52:52;;;;;;;2.90;0.60;;;;;;;;;;5013218;28;20041;-61
2022/01/21 01:55:18;;;;;;;1.73;0.70;;;;;;;;;;5012894;28;20037;-61
2022/01/21 01:57:44;;;;;;;3.22;0.70;;;;;;;;;;5012967;28;20373;-60
2022/01/21 02:00:10;;;;;;;1.65;0.60;;;;;;;;;;5013014;28;20473;-60
2022/01/21 02:02:36;;;;;;;1.60;0.65;;;;;;;;;;4995337;28;20033;-60
2022/01/21 02:05:02;;;;;;;2.65;0.68;;;;;;;;;;5013011;28;20033;-61
2022/01/21 02:07:28;;;;;;;2.28;0.60;;;;;;;;;;5011713;28;20030;-61
2022/01/21 02:09:54;;;;;;;2.10;0.57;;;;;;;;;;5007180;28;20121;-59
2022/01/21 02:12:20;;;;;;;1.38;0.68;;;;;;;;;;5032235;28;20461;-59
2022/01/21 02:14:50;;;;;;;1.70;0.60;;;;;;;;;;5032310;28;20516;-59
2022/01/21 02:22:50;;;;;;;1.20;0.50;;;;;;;;;;5022073;28;20524;-59
2022/01/21 02:25:20;;;;;;;1.95;0.70;;;;;;;;;;5012846;28;20361;-60
2022/01/21 02:27:57;;;;;;;1.73;0.60;;;;;;;;;;5012705;28;20022;-59
2022/01/21 02:30:24;;;;;;;1.17;0.52;;;;;;;;;;5012866;28;20034;-60
2022/01/21 02:32:55;;;;;;;1.67;0.60;;;;;;;;;;4995031;28;20075;-59
2022/01/21 02:35:22;;;;;;;1.15;0.45;;;;;;;;;;5012567;28;20041;-61
2022/01/21 02:37:48;;;;;;;1.65;0.50;;;;;;;;;;4995170;28;20101;-63
2022/01/21 02:40:15;;;;;;;1.50;0.52;;;;;;;;;;5011460;28;20034;-61
2022/01/21 02:42:41;;;;;;;0.60;0.47;;;;;;;;;;5004046;28;20053;-61
2022/01/21 02:45:09;;;;;;;2.25;0.60;;;;;;;;;;5012448;28;20026;-61
2022/01/21 02:47:35;;;;;;;2.58;0.80;;;;;;;;;;5012680;28;20083;-61
2022/01/21 02:50:01;;;;;;;2.38;0.55;;;;;;;;;;5012402;28;20022;-62
2022/01/21 02:52:30;;;;;;;1.63;0.52;;;;;;;;;;5012339;28;20442;-60
2022/01/21 02:54:56;;;;;;;1.02;0.50;;;;;;;;;;5012418;28;20038;-61
2022/01/21 02:57:22;;;;;;;0.88;0.47;;;;;;;;;;5014485;28;20026;-61
2022/01/21 02:59:49;;;;;;;1.38;0.60;;;;;;;;;;4979650;28;20076;-60
2022/01/21 03:02:15;;;;;;;1.02;0.40;;;;;;;;;;4996720;28;20022;-62
2022/01/21 03:05:16;;;;;;;1.25;0.55;;;;;;;;;;4996859;28;20076;-61
2022/01/21 03:07:33;;;;;;;0.95;0.40;;;;;;;;;;5002586;28;20036;-61
2022/01/21 03:09:59;;;;;;;2.63;0.70;;;;;;;;;;5031924;28;20045;-62
2022/01/21 03:12:25;;;;;;;2.38;0.80;;;;;;;;;;5008846;28;20164;-63
2022/01/21 03:14:51;;;;;;;2.72;0.75;;;;;;;;;;5020739;28;20062;-61
2022/01/21 03:17:17;;;;;;;6.60;0.73;;;;;;;;;;5022213;28;20521;-61
2022/01/21 03:19:43;;;;;;;2.40;0.93;;;;;;;;;;5025123;28;20088;-61
2022/01/21 03:22:09;;;;;;;5.65;0.88;;;;;;;;;;5011522;28;20026;-62
2022/01/21 03:24:35;;;;;;;2.47;0.88;;;;;;;;;;5022361;28;20104;-61
2022/01/21 03:27:01;;;;;;;6.32;1.02;;;;;;;;;;5024984;28;20393;-60
2022/01/21 03:29:27;;;;;;;2.38;0.65;;;;;;;;;;5020574;28;20030;-62
2022/01/21 03:31:53;;;;;;;3.58;0.73;;;;;;;;;;5019222;28;20076;-59
2022/01/21 03:34:19;;;;;;;2.88;0.70;;;;;;;;;;5024022;28;20108;-60
2022/01/21 03:36:45;;;;;;;3.92;0.52;;;;;;;;;;5027229;28;20104;-60
2022/01/21 03:39:11;;;;;;;4.43;0.90;;;;;;;;;;5026644;28;20084;-61
2022/01/21 03:41:39;;;;;;;2.55;0.80;;;;;;;;;;5025007;28;20096;-61
2022/01/21 03:44:05;;;;;;;4.53;0.95;;;;;;;;;;5024341;28;20458;-63
2022/01/21 03:46:31;;;;;;;3.30;0.70;;;;;;;;;;5022652;28;20358;-61
2022/01/21 03:48:57;;;;;;;5.38;0.82;;;;;;;;;;5023327;28;20030;-61
2022/01/21 03:51:23;;;;;;;1.80;0.68;;;;;;;;;;5023053;28;20033;-62
2022/01/21 03:53:49;;;;;;;1.67;0.65;;;;;;;;;;5017822;28;20667;-60
2022/01/21 03:56:15;;;;;;;7.13;1.08;;;;;;;;;;5015358;28;20394;-62
2022/01/21 03:58:41;;;;;;;6.90;0.70;;;;;;;;;;5015075;28;20494;-61
2022/01/21 04:01:07;;;;;;;6.05;0.80;;;;;;;;;;5014855;28;20050;-63
2022/01/21 04:03:33;;;;;;;7.47;0.88;;;;;;;;;;5013901;28;20014;-61
2022/01/21 04:05:59;;;;;;;4.85;0.90;;;;;;;;;;5007100;28;20386;-62
2022/01/21 04:08:25;;;;;;;4.88;0.60;;;;;;;;;;4996651;28;20030;-61
2022/01/21 04:10:51;;;;;;;3.80;0.50;;;;;;;;;;5015121;28;20026;-61
2022/01/21 04:13:19;;;;;;;1.83;0.70;;;;;;;;;;4997182;28;20045;-62
2022/01/21 04:15:49;;;;;;;1.77;0.77;;;;;;;;;;5015069;28;20022;-60
2022/01/21 04:18:16;;;;;;;3.05;0.77;;;;;;;;;;4997075;28;20362;-61
2022/01/21 04:20:43;;;;;;;2.42;0.80;;;;;;;;;;5012133;28;20034;-61
2022/01/21 04:23:10;;;;;;;2.65;0.60;;;;;;;;;;5009134;28;20030;-61
2022/01/21 04:25:36;;;;;;;2.72;0.70;;;;;;;;;;5014891;28;20034;-61
2022/01/21 04:28:02;;;;;;;2.35;0.60;;;;;;;;;;5014906;28;20022;-61
2022/01/21 04:30:28;;;;;;;2.53;0.77;;;;;;;;;;5014810;28;20025;-61
2022/01/21 04:32:54;;;;;;;4.63;0.65;;;;;;;;;;5014717;28;20022;-61
2022/01/21 04:35:20;;;;;;;8.05;0.80;;;;;;;;;;5013468;28;20045;-63
2022/01/21 04:37:55;;;;;;;3.60;0.88;;;;;;;;;;4997065;28;20029;-61
2022/01/21 04:40:23;;;;;;;3.55;0.75;;;;;;;;;;5014626;28;20022;-60
2022/01/21 04:48:19;;;;;;;2.22;0.70;;;;;;;;;;5014821;28;20037;-60
2022/01/21 04:50:57;;;;;;;3.20;0.80;;;;;;;;;;5014110;28;20425;-60
2022/01/21 04:53:24;;;;;;;1.88;0.60;;;;;;;;;;5013372;28;20026;-61
2022/01/21 04:55:50;;;;;;;1.77;0.70;;;;;;;;;;5006229;28;20030;-61
2022/01/21 04:58:16;;;;;;;2.20;0.73;;;;;;;;;;5014092;28;20053;-61
2022/01/21 05:00:43;;;;;;;8.73;1.05;;;;;;;;;;5014107;28;20062;-62
2022/01/21 05:03:10;;;;;;;3.40;0.65;;;;;;;;;;5014255;28;20022;-61
2022/01/21 05:05:36;;;;;;;2.13;0.60;;;;;;;;;;4996209;28;20030;-63
2022/01/21 05:08:06;;;;;;;3.85;0.93;;;;;;;;;;5014035;28;20067;-61
2022/01/21 05:10:33;;;;;;;1.63;0.77;;;;;;;;;;5020200;28;20032;-61
2022/01/21 05:12:59;;;;;;;1.92;0.68;;;;;;;;;;5001152;28;20023;-61
2022/01/21 05:15:41;;;;;;;5.22;0.70;;;;;;;;;;4994301;28;20030;-61
2022/01/21 05:18:07;;;;;;;1.85;0.70;;;;;;;;;;4993704;28;20022;-62
2022/01/21 05:20:33;;;;;;;1.90;0.73;;;;;;;;;;4994152;28;20040;-62
2022/01/21 05:22:59;;;;;;;2.80;0.70;;;;;;;;;;4976390;28;20077;-61
2022/01/21 05:25:24;;;;;;;1.75;0.70;;;;;;;;;;4999911;28;20105;-61
2022/01/21 05:27:53;;;;;;;2.60;0.63;;;;;;;;;;5013643;28;20033;-63
2022/01/21 05:30:19;;;;;;;4.10;0.60;;;;;;;;;;4995990;28;20038;-60
2022/01/21 05:32:45;;;;;;;4.10;0.60;;;;;;;;;;4995833;28;20026;-61
2022/01/21 05:35:12;;;;;;;1.95;0.70;;;;;;;;;;5013272;28;20038;-61
2022/01/21 05:37:38;;;;;;;2.30;0.75;;;;;;;;;;5013645;28;20022;-61
2022/01/21 05:40:05;;;;;;;1.58;0.70;;;;;;;;;;5013491;28;20026;-60
2022/01/21 05:42:34;;;;;;;3.53;0.68;;;;;;;;;;5012024;28;20038;-63
2022/01/21 05:47:26;;;;;;;5.50;0.90;;;;;;;;;;5013155;28;20103;-61
2022/01/21 05:49:52;;;;;;;2.72;0.50;;;;;;;;;;5013544;28;20100;-61
2022/01/21 05:52:19;;;;;;;2.63;0.80;;;;;;;;;;4995512;28;20343;-61
2022/01/21 05:54:46;;;;;;;1.27;0.73;;;;;;;;;;5013226;28;20034;-63
2022/01/21 05:57:14;;;;;;;2.47;0.68;;;;;;;;;;4994581;28;20030;-60
2022/01/21 05:59:40;;;;;;;4.47;0.65;;;;;;;;;;4995189;28;20069;-60
2022/01/21 06:02:06;;;;;;;1.48;0.68;;;;;;;;;;5012797;28;20721;-61
2022/01/21 06:04:33;;;;;;;1.27;0.60;;;;;;;;;;5012842;28;20472;-62
2022/01/21 06:07:02;;;;;;;1.77;0.60;;;;;;;;;;5013200;28;20030;-61
2022/01/21 06:09:28;;;;;;;2.25;0.95;;;;;;;;;;5012994;28;20017;-61
2022/01/21 06:11:54;;;;;;;2.67;0.88;;;;;;;;;;5031695;28;20051;-61
2022/01/21 06:14:20;;;;;;;1.38;0.70;;;;;;;;;;5032477;28;20077;-60
2022/01/21 06:16:46;;;;;;;1.80;0.50;;;;;;;;;;5012732;28;20033;-61
2022/01/21 06:19:12;;;;;;;3.30;0.70;;;;;;;;;;4995746;28;20106;-63
2022/01/21 06:21:38;;;;;;;6.93;0.60;;;;;;;;;;5021141;28;20072;-60
2022/01/21 06:24:04;;;;;;;4.13;0.80;;;;;;;;;;5025952;28;20056;-60
2022/01/21 06:26:30;;;;;;;6.05;0.60;;;;;;;;;;5023987;28;20040;-61
2022/01/21 06:28:56;;;;;;;2.85;0.95;;;;;;;;;;5014701;28;20431;-61
2022/01/21 06:31:23;;;;;;;3.95;0.65;;;;;;;;;;5026272;28;20453;-61
2022/01/21 06:33:49;;;;;;;9.75;0.70;;;;;;;;;;5001607;28;20057;-59
2022/01/21 06:36:15;;;;;;;26.60;1.08;;;;;;;;;;5004551;28;20482;-61
2022/01/21 06:38:41;;;;;;;7.20;1.10;;;;;;;;;;5014932;28;20371;-60
2022/01/21 06:41:07;;;;;;;33.55;1.45;;;;;;;;;;5021769;28;20033;-63
2022/01/21 06:43:33;;;;;;;10.63;0.88;;;;;;;;;;5020271;28;20022;-61
2022/01/21 06:45:59;;;;;;;22.30;1.10;;;;;;;;;;5022334;28;20448;-61
2022/01/21 06:48:25;;;;;;;7.78;0.80;;;;;;;;;;5013482;28;20073;-61
2022/01/21 06:50:51;;;;;;;18.15;1.10;;;;;;;;;;5000848;28;20030;-61
2022/01/21 06:53:17;;;;;;;11.60;0.85;;;;;;;;;;4975345;28;20027;-61
2022/01/21 06:55:43;;;;;;;10.95;0.90;;;;;;;;;;4992769;28;20065;-60
2022/01/21 06:58:09;;;;;;;9.88;1.10;;;;;;;;;;4992892;28;20443;-61
2022/01/21 07:00:35;;;;;;;5.70;1.00;;;;;;;;;;4992532;28;20038;-61
2022/01/21 07:03:02;;;;;;;6.53;1.20;;;;;;;;;;5027632;28;20033;-61
2022/01/21 07:05:31;;;;;;;1.83;0.68;;;;;;;;;;5004648;28;20045;-61
2022/01/21 07:07:58;;;;;;;5.88;0.80;;;;;;;;;;5004721;28;20033;-63
2022/01/21 07:10:25;;;;;;;5.55;1.00;;;;;;;;;;5018707;28;20017;-61
2022/01/21 07:12:51;;;;;;;4.13;1.02;;;;;;;;;;5014160;28;20039;-62
2022/01/21 07:15:19;;;;;;;8.07;1.10;;;;;;;;;;5030730;28;20400;-61
2022/01/21 07:17:46;;;;;;;5.07;0.90;;;;;;;;;;5031519;28;20376;-61
2022/01/21 07:20:13;;;;;;;9.90;1.05;;;;;;;;;;5017664;28;20030;-61
2022/01/21 07:22:39;;;;;;;4.28;0.75;;;;;;;;;;5002436;28;20446;-61
2022/01/21 07:25:06;;;;;;;1.77;0.80;;;;;;;;;;4992353;28;20354;-61
2022/01/21 07:27:32;;;;;;;5.13;1.30;;;;;;;;;;4992709;28;20026;-61
2022/01/21 07:29:58;;;;;;;7.25;0.90;;;;;;;;;;4992389;28;20058;-61
2022/01/21 07:32:24;;;;;;;7.75;0.80;;;;;;;;;;4992313;28;20062;-61
2022/01/21 07:34:50;;;;;;;3.33;0.82;;;;;;;;;;4998379;28;20042;-62
2022/01/21 07:37:16;;;;;;;3.90;0.82;;;;;;;;;;5005241;28;20403;-61
2022/01/21 07:39:42;;;;;;;5.95;1.23;;;;;;;;;;4992074;28;20433;-61
2022/01/21 07:42:08;;;;;;;6.93;1.05;;;;;;;;;;4992121;28;20350;-61
2022/01/21 07:44:34;;;;;;;2.58;1.00;;;;;;;;;;4987864;28;20457;-61
2022/01/21 07:47:01;;;;;;;19.27;1.55;;;;;;;;;;4997649;28;20034;-62
2022/01/21 07:49:27;;;;;;;9.95;1.00;;;;;;;;;;5014017;28;20033;-62
2022/01/21 07:51:53;;;;;;;5.28;1.00;;;;;;;;;;5004099;28;20031;-62
2022/01/21 07:54:19;;;;;;;8.85;0.95;;;;;;;;;;5015323;28;20045;-61
2022/01/21 07:56:45;;;;;;;3.67;0.85;;;;;;;;;;5014848;28;20026;-61
2022/01/21 07:59:12;;;;;;;3.70;1.00;;;;;;;;;;5015156;28;20042;-61
2022/01/21 08:01:38;;;;;;;16.05;1.38;;;;;;;;;;5014956;28;20758;-61
2022/01/21 08:04:04;;;;;;;5.35;1.00;;;;;;;;;;5015124;28;20349;-63
2022/01/21 08:06:31;;;;;;;11.88;1.00;;;;;;;;;;5014156;28;20033;-64
2022/01/21 08:08:57;;;;;;;2.83;0.88;;;;;;;;;;5010373;28;20034;-63
2022/01/21 08:11:23;;;;;;;5.95;1.20;;;;;;;;;;5024458;28;20028;-63
2022/01/21 08:13:50;;;;;;;7.55;1.25;;;;;;;;;;5034822;28;20053;-63
2022/01/21 08:16:16;;;;;;;7.07;1.10;;;;;;;;;;5034787;28;20033;-64
2022/01/21 08:18:42;;;;;;;4.50;1.08;;;;;;;;;;5034888;28;20029;-63
2022/01/21 08:21:08;;;;;;;6.30;1.10;;;;;;;;;;5034368;28;20095;-63
2022/01/21 08:23:34;;;;;;;4.00;0.98;;;;;;;;;;5028223;28;20026;-62
2022/01/21 08:26:00;;;;;;;4.88;1.55;;;;;;;;;;5010279;28;20026;-64
2022/01/21 08:28:26;;;;;;;10.05;1.02;;;;;;;;;;4994789;28;20080;-63
2022/01/21 08:30:52;;;;;;;6.07;1.20;;;;;;;;;;4994833;28;20018;-63
2022/01/21 08:33:18;;;;;;;7.43;1.13;;;;;;;;;;4994524;28;20487;-62
2022/01/21 08:35:44;;;;;;;25.77;1.75;;;;;;;;;;4994676;28;20030;-61
2022/01/21 08:38:10;;;;;;;14.68;1.33;;;;;;;;;;4994433;28;20030;-61
2022/01/21 08:40:36;;;;;;;16.45;1.40;;;;;;;;;;5008805;28;20117;-61
2022/01/21 08:43:03;;;;;;;10.90;1.10;;;;;;;;;;5001508;28;20494;-61
2022/01/21 08:45:29;;;;;;;3.88;0.85;;;;;;;;;;5013072;28;20488;-61
2022/01/21 08:47:55;;;;;;;7.82;1.33;;;;;;;;;;5014532;28;20033;-61
2022/01/21 08:50:22;;;;;;;7.30;1.10;;;;;;;;;;5014348;28;20034;-61
2022/01/21 08:52:49;;;;;;;17.80;1.30;;;;;;;;;;5013968;28;20026;-62
2022/01/21 08:55:16;;;;;;;7.40;1.20;;;;;;;;;;5025761;28;20353;-62
2022/01/21 08:57:43;;;;;;;14.18;1.40;;;;;;;;;;5004453;28;20687;-62
2022/01/21 09:00:12;;;;;;;9.77;1.42;;;;;;;;;;5014321;28;20374;-61
2022/01/21 09:02:38;;;;;;;5.80;1.45;;;;;;;;;;5013810;28;20018;-61
2022/01/21 09:05:04;;;;;;;13.40;1.58;;;;;;;;;;4996523;28;20079;-61
2022/01/21 09:07:30;;;;;;;4.90;1.27;;;;;;;;;;5013808;28;20045;-61
2022/01/21 09:09:56;;;;;;;6.70;1.50;;;;;;;;;;4999228;28;20026;-62
2022/01/21 09:12:22;;;;;;;6.43;1.00;;;;;;;;;;5002428;28;20129;-60
2022/01/21 09:14:49;;;;;;;5.72;1.10;;;;;;;;;;4988020;28;20773;-61
2022/01/21 09:17:15;;;;;;;11.73;1.70;;;;;;;;;;4996287;28;20373;-61
2022/01/21 09:19:41;;;;;;;8.13;1.20;;;;;;;;;;5021993;28;20457;-61
2022/01/21 09:22:07;;;;;;;7.28;1.30;;;;;;;;;;5015537;28;20021;-61
2022/01/21 09:24:33;;;;;;;5.53;2.00;;;;;;;;;;5033532;28;20026;-60
2022/01/21 09:27:03;;;;;;;6.47;1.20;;;;;;;;;;5026569;28;20026;-61
2022/01/21 09:29:29;;;;;;;3.75;1.20;;;;;;;;;;5010092;28;20109;-61
2022/01/21 09:31:54;;;;;;;5.47;1.23;;;;;;;;;;4993828;28;20105;-61
2022/01/21 09:34:21;;;;;;;4.55;1.08;;;;;;;;;;4993823;28;20053;-61
2022/01/21 09:36:47;;;;;;;9.25;1.30;;;;;;;;;;4994234;28;20382;-60
2022/01/21 09:39:13;;;;;;;4.88;1.17;;;;;;;;;;4993795;28;20026;-62
2022/01/21 09:41:42;;;;;;;5.20;1.08;;;;;;;;;;4993623;28;20049;-62
2022/01/21 09:44:11;;;;;;;6.47;1.20;;;;;;;;;;5009177;28;20029;-61
2022/01/21 09:46:38;;;;;;;5.90;1.05;;;;;;;;;;4995793;28;20375;-62
2022/01/21 09:49:09;;;;;;;8.60;1.17;;;;;;;;;;4999765;28;20048;-62
2022/01/21 09:51:36;;;;;;;36.40;2.42;;;;;;;;;;5020651;28;20473;-61
2022/01/21 09:54:06;;;;;;;5.13;1.38;;;;;;;;;;5021104;28;20548;-63
2022/01/21 09:56:34;;;;;;;4.07;1.00;;;;;;;;;;5027112;28;20044;-62
2022/01/21 09:59:00;;;;;;;6.47;1.10;;;;;;;;;;5027607;28;20029;-62
2022/01/21 10:01:27;;;;;;;3.40;0.93;;;;;;;;;;5010586;28;20037;-61
2022/01/21 10:03:53;;;;;;;3.50;1.02;;;;;;;;;;5021578;28;20030;-61
2022/01/21 10:06:22;;;;;;;4.13;0.80;;;;;;;;;;5025408;28;20022;-62
2022/01/21 10:08:48;;;;;;;3.80;1.23;;;;;;;;;;5014160;28;20021;-62
2022/01/21 10:11:14;;;;;;;4.85;1.10;;;;;;;;;;5018595;28;20022;-61
2022/01/21 10:13:42;;;;;;;4.45;0.77;;;;;;;;;;5006792;28;20389;-62
2022/01/21 10:16:09;;;;;;;3.42;0.95;;;;;;;;;;5021970;28;20041;-61
2022/01/21 10:18:36;;;;;;;3.05;0.88;;;;;;;;;;5021035;28;20029;-61
2022/01/21 10:21:02;;;;;;;8.82;1.00;;;;;;;;;;5020577;28;20030;-61
2022/01/21 10:23:29;;;;;;;4.35;0.98;;;;;;;;;;5017856;28;20116;-62
2022/01/21 10:26:06;;;;;;;3.70;1.00;;;;;;;;;;5012249;28;20061;-64
2022/01/21 10:28:32;;;;;;;2.65;0.93;;;;;;;;;;5012599;28;20033;-64
2022/01/21 10:31:10;;;;;;;3.70;1.17;;;;;;;;;;5012388;28;20641;-64
2022/01/21 10:33:40;;;;;;;3.60;1.00;;;;;;;;;;5009796;28;20033;-65
2022/01/21 10:36:08;;;;;;;4.30;0.98;;;;;;;;;;4992814;28;20097;-64
2022/01/21 10:38:39;;;;;;;5.95;1.20;;;;;;;;;;4993246;28;20031;-66
2022/01/21 10:41:09;;;;;;;20.25;1.27;;;;;;;;;;4992857;28;20022;-64
2022/01/21 10:43:35;;;;;;;31.27;1.65;;;;;;;;;;4993760;28;20034;-66
2022/01/21 10:46:03;;;;;;;20.95;1.33;;;;;;;;;;4994671;28;20147;-65
2022/01/21 10:48:29;;;;;;;20.67;1.73;;;;;;;;;;5012846;28;20022;-63
2022/01/21 10:51:14;;;;;;;14.70;1.42;;;;;;;;;;5007666;28;20061;-64
2022/01/21 10:53:43;;;;;;;11.90;1.58;;;;;;;;;;5010483;28;20078;-64
2022/01/21 10:56:11;;;;;;;10.27;1.50;;;;;;;;;;5021837;28;20053;-66
2022/01/21 10:58:41;;;;;;;28.38;1.23;;;;;;;;;;5003473;28;20025;-66
2022/01/21 11:01:12;;;;;;;32.88;1.90;;;;;;;;;;5032151;28;20087;-66
2022/01/21 11:03:59;;;;;;;62.65;2.72;;;;;;;;;;5031848;28;20022;-64
2022/01/21 11:06:27;;;;;;;50.50;3.40;;;;;;;;;;5030751;28;20044;-64
2022/01/21 11:09:11;;;;;;;88.55;5.80;;;;;;;;;;5016719;28;20056;-64
2022/01/21 11:11:37;;;;;;;125.80;6.60;;;;;;;;;;5016625;28;20030;-62
2022/01/21 11:14:10;;;;;;;122.55;6.80;;;;;;;;;;5020975;28;20059;-62
2022/01/21 11:16:37;;;;;;;124.20;6.32;;;;;;;;;;5020502;28;20021;-62
2022/01/21 11:19:15;;;;;;;119.50;7.65;;;;;;;;;;5023596;28;20028;-62
2022/01/21 11:21:46;;;;;;;98.93;7.15;;;;;;;;;;5005654;28;20488;-62
2022/01/21 11:24:13;;;;;;;79.30;6.22;;;;;;;;;;5021568;28;20026;-62
2022/01/21 11:26:39;;;;;;;55.10;5.63;;;;;;;;;;5006861;28;20397;-62
2022/01/21 11:29:06;;;;;;;61.22;4.93;;;;;;;;;;5027151;28;20029;-63
2022/01/21 11:31:32;;;;;;;77.13;5.28;;;;;;;;;;5023584;28;20071;-62
2022/01/21 11:33:58;;;;;;;50.88;4.32;;;;;;;;;;5024451;28;20057;-62
2022/01/21 11:36:25;;;;;;;53.13;4.07;;;;;;;;;;5024069;28;20042;-62
2022/01/21 11:38:55;;;;;;;50.28;4.43;;;;;;;;;;5021310;28;20021;-62
2022/01/21 11:41:21;;;;;;;34.55;3.58;;;;;;;;;;5019061;28;20026;-61
2022/01/21 11:43:50;;;;;;;42.35;3.78;;;;;;;;;;5013174;28;20038;-62
2022/01/21 11:46:40;;;;;;;44.03;4.22;;;;;;;;;;5015623;28;20022;-62
2022/01/21 11:49:09;;;;;;;31.23;3.65;;;;;;;;;;5015502;28;20038;-62
2022/01/21 11:51:36;;;;;;;32.10;4.10;;;;;;;;;;5021750;28;20034;-63
2022/01/21 11:54:05;;;;;;;38.53;3.97;;;;;;;;;;5027602;28;20033;-62
2022/01/21 11:56:31;;;;;;;20.10;2.10;;;;;;;;;;5025913;28;20038;-62
2022/01/21 11:59:07;;;;;;;27.95;3.17;;;;;;;;;;5025520;28;20020;-62
2022/01/21 12:01:41;;;;;;;22.08;2.70;;;;;;;;;;5027565;28;20022;-62
2022/01/21 12:04:07;;;;;;;20.80;2.97;;;;;;;;;;5023181;28;20013;-62
2022/01/21 12:06:34;;;;;;;21.88;3.03;;;;;;;;;;5020756;28;20389;-63
2022/01/21 12:09:02;;;;;;;15.00;2.00;;;;;;;;;;5028206;28;20025;-63
2022/01/21 12:11:38;;;;;;;14.32;2.58;;;;;;;;;;5018823;28;20029;-63
2022/01/21 12:14:07;;;;;;;21.63;2.88;;;;;;;;;;5019380;28;20461;-62
2022/01/21 12:17:47;;;;;;;14.93;2.08;;;;;;;;;;5022942;28;20013;-63
2022/01/21 12:19:40;;;;;;;15.20;2.03;;;;;;;;;;5010609;28;20036;-63
2022/01/21 12:22:11;;;;;;;11.20;2.65;;;;;;;;;;5022830;28;20009;-64
2022/01/21 12:24:47;;;;;;;10.07;1.77;;;;;;;;;;5023284;28;20045;-64
2022/01/21 12:27:14;;;;;;;11.50;2.35;;;;;;;;;;5026170;28;20033;-63
2022/01/21 12:29:40;;;;;;;15.48;2.75;;;;;;;;;;5004899;28;20025;-64
2022/01/21 12:32:35;;;;;;;9.25;2.15;;;;;;;;;;5020329;28;20491;-64
2022/01/21 12:34:59;;;;;;;19.42;2.40;;;;;;;;;;5023985;28;20065;-64
2022/01/21 12:37:37;;;;;;;;;;;;;;;;;;5027160;28;20044;-64
2022/01/21 12:40:03;;;;;;;10.88;1.98;;;;;;;;;;5022485;28;19909;-64
2022/01/21 12:42:35;;;;;;;7.75;1.80;;;;;;;;;;5007749;28;20117;-63
2022/01/21 12:45:07;;;;;;;16.43;2.20;;;;;;;;;;5017594;28;20508;-63
2022/01/21 12:47:36;;;;;;;16.13;2.33;;;;;;;;;;5027756;28;20021;-64
2022/01/21 12:50:09;;;;;;;9.82;2.00;;;;;;;;;;5022960;28;20041;-65
2022/01/21 12:52:52;;;;;;;17.13;2.10;;;;;;;;;;5014483;28;20018;-62
2022/01/21 12:55:55;;;;;;;21.77;2.20;;;;;;;;;;5016684;28;20045;-62
2022/01/21 12:58:21;;;;;;;;;;;;;;;;;;5017366;28;20481;-63
2022/01/21 13:00:47;;;;;;;21.67;2.08;;;;;;;;;;5024188;28;20372;-62
2022/01/21 13:03:25;;;;;;;46.80;3.20;;;;;;;;;;5028204;28;20053;-65
2022/01/21 13:05:56;;;;;;;20.00;2.17;;;;;;;;;;5016558;28;20031;-63
2022/01/21 13:08:34;;;;;;;29.45;1.90;;;;;;;;;;5009770;28;20689;-62
2022/01/21 13:11:11;;;;;;;36.95;2.47;;;;;;;;;;5007470;28;20502;-60
2022/01/21 13:13:59;;;;;;;24.77;1.80;;;;;;;;;;5032473;28;20432;-63
2022/01/21 13:16:25;;;;;;;24.33;2.45;;;;;;;;;;5033436;28;20028;-61
2022/01/21 13:18:58;;;;;;;23.33;2.08;;;;;;;;;;5033331;28;20021;-61
2022/01/21 13:21:24;;;;;;;19.25;1.90;;;;;;;;;;5033527;28;20029;-61
2022/01/21 13:23:55;;;;;;;20.40;2.15;;;;;;;;;;5009998;28;20045;-62
2022/01/21 13:26:23;;;;;;;17.38;2.40;;;;;;;;;;4998339;28;20022;-61
2022/01/21 13:29:00;;;;;;;23.77;2.28;;;;;;;;;;4994046;28;20018;-62
2022/01/21 13:31:27;;;;;;;18.45;2.47;;;;;;;;;;4993949;28;20026;-61
2022/01/21 13:34:05;;;;;;;10.02;1.75;;;;;;;;;;4993959;28;20042;-62
2022/01/21 13:36:41;;;;;;;26.13;2.53;;;;;;;;;;4993944;28;20026;-62
2022/01/21 13:39:10;;;;;;;12.48;1.98;;;;;;;;;;4976094;28;20031;-61
2022/01/21 13:41:46;;;;;;;13.25;1.73;;;;;;;;;;4976482;28;20030;-62
2022/01/21 13:44:12;;;;;;;10.07;1.80;;;;;;;;;;5013439;28;20133;-61
2022/01/21 13:46:39;;;;;;;8.18;1.90;;;;;;;;;;5013458;28;20326;-62
2022/01/21 13:49:05;;;;;;;17.00;2.33;;;;;;;;;;5013493;28;20056;-62
2022/01/21 13:51:31;;;;;;;11.50;2.08;;;;;;;;;;5013045;28;20228;-61
2022/01/21 13:54:05;;;;;;;8.48;1.50;;;;;;;;;;4995761;28;20030;-62
2022/01/21 13:56:31;;;;;;;9.82;1.85;;;;;;;;;;5011815;28;20057;-63
2022/01/21 13:58:57;;;;;;;11.23;1.90;;;;;;;;;;5013256;28;20556;-63
2022/01/21 14:01:27;;;;;;;7.05;1.80;;;;;;;;;;5012864;28;20098;-63
2022/01/21 14:03:55;;;;;;;5.82;1.40;;;;;;;;;;5013135;28;20033;-62
2022/01/21 14:06:22;;;;;;;13.82;1.65;;;;;;;;;;5013318;28;20117;-63
2022/01/21 14:08:49;;;;;;;12.05;1.80;;;;;;;;;;5013128;28;20028;-63
2022/01/21 14:11:28;;;;;;;5.53;1.48;;;;;;;;;;5008673;28;20037;-62
2022/01/21 14:14:05;;;;;;;8.52;1.65;;;;;;;;;;5004000;28;20060;-62
2022/01/21 14:16:32;;;;;;;5.50;1.48;;;;;;;;;;4995117;28;20061;-63
2022/01/21 14:18:59;;;;;;;5.95;1.55;;;;;;;;;;5012863;28;20096;-64
2022/01/21 14:21:26;;;;;;;7.93;1.75;;;;;;;;;;5012526;28;20053;-63
2022/01/21 14:23:52;;;;;;;10.70;2.33;;;;;;;;;;5012824;28;20485;-62
2022/01/21 14:26:20;;;;;;;5.40;1.65;;;;;;;;;;5012966;28;20034;-62
2022/01/21 14:28:52;;;;;;;7.80;1.65;;;;;;;;;;5010302;28;20031;-63
2022/01/21 14:31:30;;;;;;;11.80;2.13;;;;;;;;;;5005623;28;20109;-63
2022/01/21 14:33:56;;;;;;;8.40;1.92;;;;;;;;;;4993025;28;20032;-62
2022/01/21 14:36:22;;;;;;;4.93;1.20;;;;;;;;;;4993019;28;20451;-62
2022/01/21 14:38:49;;;;;;;8.00;1.75;;;;;;;;;;4993098;28;20027;-62
2022/01/21 14:41:16;;;;;;;6.88;2.00;;;;;;;;;;4992743;28;20030;-61
2022/01/21 14:43:49;;;;;;;7.60;1.70;;;;;;;;;;4997065;28;20122;-61
2022/01/21 14:46:23;;;;;;;8.30;1.70;;;;;;;;;;5011639;28;20053;-64
2022/01/21 14:48:56;;;;;;;9.52;1.52;;;;;;;;;;5012618;28;20018;-61
2022/01/21 14:51:31;;;;;;;5.57;1.88;;;;;;;;;;5012244;28;20473;-61
2022/01/21 14:54:17;;;;;;;8.20;1.85;;;;;;;;;;4998899;28;20385;-64
2022/01/21 14:56:59;;;;;;;7.57;2.10;;;;;;;;;;5016523;28;20157;-63
2022/01/21 14:59:25;;;;;;;7.72;2.35;;;;;;;;;;5016574;28;20029;-63
2022/01/21 15:02:01;;;;;;;7.43;2.13;;;;;;;;;;5012113;28;20505;-63
2022/01/21 15:04:28;;;;;;;6.47;1.88;;;;;;;;;;4996661;28;20026;-63
2022/01/21 15:07:14;;;;;;;8.30;1.98;;;;;;;;;;4996839;28;20022;-63
2022/01/21 15:09:47;;;;;;;5.55;1.70;;;;;;;;;;4997744;28;20026;-64
2022/01/21 15:15:10;;;;;;;5.72;1.88;;;;;;;;;;5035231;28;20102;-63
2022/01/21 15:17:36;;;;;;;6.80;1.67;;;;;;;;;;5029754;28;20022;-63
2022/01/21 15:20:03;;;;;;;6.95;1.70;;;;;;;;;;5007872;28;20082;-64
2022/01/21 15:22:29;;;;;;;7.00;2.08;;;;;;;;;;4998414;28;20031;-64
2022/01/21 15:24:56;;;;;;;7.25;2.13;;;;;;;;;;5016109;28;20091;-64
2022/01/21 15:27:23;;;;;;;7.22;1.88;;;;;;;;;;5015850;28;20779;-62
2022/01/21 15:29:53;;;;;;;5.60;2.00;;;;;;;;;;5016078;28;20057;-62
2022/01/21 15:32:19;;;;;;;5.38;2.13;;;;;;;;;;5015683;28;20026;-63
2022/01/21 15:34:45;;;;;;;6.68;2.25;;;;;;;;;;5014523;28;20057;-61
2022/01/21 15:37:13;;;;;;;5.00;2.03;;;;;;;;;;5001719;28;20026;-62
2022/01/21 15:39:39;;;;;;;11.05;2.40;;;;;;;;;;4996454;28;20033;-61
2022/01/21 15:42:06;;;;;;;10.25;2.42;;;;;;;;;;4996224;28;20041;-61